Time;durP1;ratioP1;P1;durP2;ratioP2;P2;SDS_P1;SDS_P2;PMS_P1;PMS_P2;Temp;Humidity;BMP_temperature;BMP_pressure;BME280_temperature;BME280_humidity;BME280_pressure;Samples;Min_cycle;Max_cycle;Signal;HPM_P1;HPM_P2
2023/09/11 00:01:20;;;;;;;19.33;10.43;;;22.40;72.10;;;;;;5073737;28;20048;-72
2023/09/11 00:03:47;;;;;;;10.20;8.98;;;22.40;72.40;;;;;;5073887;28;20086;-72
2023/09/11 00:06:13;;;;;;;10.77;8.95;;;22.40;72.40;;;;;;5074640;28;20036;-72
2023/09/11 00:08:38;;;;;;;15.80;10.85;;;22.30;72.50;;;;;;5074037;28;20511;-72
2023/09/11 00:11:04;;;;;;;12.85;10.20;;;22.30;72.60;;;;;;5073007;28;20032;-72
2023/09/11 00:13:31;;;;;;;12.43;9.95;;;22.30;72.60;;;;;;5074049;28;20044;-72
2023/09/11 00:15:56;;;;;;;19.58;13.30;;;22.30;72.70;;;;;;5074090;28;20051;-72
2023/09/11 00:18:23;;;;;;;20.13;12.50;;;22.20;73.00;;;;;;5073512;28;20036;-72
2023/09/11 00:20:49;;;;;;;23.05;13.18;;;22.20;73.30;;;;;;5073901;28;20044;-72
2023/09/11 00:23:15;;;;;;;19.83;12.48;;;22.10;73.50;;;;;;5057642;28;20040;-72
2023/09/11 00:25:41;;;;;;;22.63;13.45;;;22.10;73.70;;;;;;5074215;28;20502;-72
2023/09/11 00:28:06;;;;;;;23.30;13.32;;;22.10;74.40;;;;;;5073206;28;20499;-72
2023/09/11 00:30:32;;;;;;;18.75;13.45;;;22.10;74.10;;;;;;5056771;28;20043;-72
2023/09/11 00:32:58;;;;;;;20.65;12.45;;;22.10;74.30;;;;;;5073855;28;20171;-72
2023/09/11 00:35:23;;;;;;;13.90;10.07;;;22.00;74.30;;;;;;5073857;28;20083;-72
2023/09/11 00:37:49;;;;;;;17.13;10.30;;;22.00;74.10;;;;;;5073571;28;20043;-72
2023/09/11 00:40:15;;;;;;;14.32;9.15;;;22.00;73.80;;;;;;5073139;28;20507;-72
2023/09/11 00:42:41;;;;;;;18.30;11.50;;;22.00;73.70;;;;;;5074692;28;20119;-72
2023/09/11 00:45:07;;;;;;;28.27;13.38;;;22.00;73.70;;;;;;5073816;28;20121;-72
2023/09/11 00:47:33;;;;;;;16.83;10.82;;;22.00;73.90;;;;;;5072545;28;20086;-72
2023/09/11 00:49:59;;;;;;;15.27;11.70;;;22.00;74.00;;;;;;5068548;28;20052;-72
2023/09/11 00:52:26;;;;;;;18.25;12.20;;;21.90;74.00;;;;;;5053383;28;20075;-72
2023/09/11 00:54:54;;;;;;;14.77;11.50;;;21.90;74.10;;;;;;5036913;28;20044;-72
2023/09/11 00:57:21;;;;;;;18.05;12.57;;;21.90;74.00;;;;;;5068000;28;20123;-72
2023/09/11 00:59:48;;;;;;;17.60;11.30;;;21.90;74.20;;;;;;5037374;28;20793;-72
2023/09/11 01:02:14;;;;;;;15.68;11.52;;;21.90;74.10;;;;;;5036554;28;20052;-72
2023/09/11 01:04:41;;;;;;;15.07;10.20;;;21.90;74.10;;;;;;5053504;28;20045;-72
2023/09/11 01:07:07;;;;;;;14.10;8.95;;;21.90;74.00;;;;;;5055516;28;20048;-72
2023/09/11 01:09:34;;;;;;;15.63;10.80;;;21.90;73.70;;;;;;5056245;28;20093;-72
2023/09/11 01:12:00;;;;;;;18.30;13.52;;;21.90;73.60;;;;;;5053356;28;20051;-72
2023/09/11 01:14:26;;;;;;;15.55;10.30;;;21.90;73.80;;;;;;5072127;28;20044;-72
2023/09/11 01:16:56;;;;;;;16.55;11.05;;;21.90;73.80;;;;;;5055212;28;20174;-72
2023/09/11 01:19:41;;;;;;;19.50;11.95;;;21.90;73.80;;;;;;5072746;28;20040;-72
2023/09/11 01:22:26;;;;;;;15.93;10.30;;;21.90;74.30;;;;;;5052020;28;20506;-72
2023/09/11 01:25:06;;;;;;;13.23;10.38;;;21.90;73.70;;;;;;5053909;28;20484;-72
2023/09/11 01:28:10;;;;;;;13.25;9.40;;;21.90;73.60;;;;;;5053457;28;20040;-72
2023/09/11 01:30:39;;;;;;;13.02;9.85;;;21.90;73.00;;;;;;5030399;28;20249;-72
2023/09/11 01:33:04;;;;;;;13.52;10.20;;;21.80;73.20;;;;;;5072908;28;20080;-72
2023/09/11 01:35:30;;;;;;;20.63;13.98;;;21.80;73.10;;;;;;5072175;28;20432;-72
2023/09/11 01:37:57;;;;;;;16.48;11.98;;;21.80;73.40;;;;;;5071915;28;20048;-72
2023/09/11 01:40:26;;;;;;;12.38;10.35;;;21.80;73.30;;;;;;5048999;28;20037;-72
2023/09/11 01:42:56;;;;;;;11.63;10.40;;;21.80;73.20;;;;;;5052757;28;20056;-72
2023/09/11 01:45:22;;;;;;;13.32;10.40;;;21.80;73.00;;;;;;5064606;28;20479;-72
2023/09/11 01:47:51;;;;;;;16.25;10.55;;;21.80;72.90;;;;;;5085443;28;20065;-72
2023/09/11 01:50:20;;;;;;;13.50;9.55;;;21.80;72.90;;;;;;5057507;28;20063;-72
2023/09/11 01:52:51;;;;;;;13.70;10.25;;;21.80;72.90;;;;;;5044004;28;20407;-72
2023/09/11 01:55:17;;;;;;;12.68;10.23;;;21.80;72.70;;;;;;5068723;28;20032;-71
2023/09/11 01:57:43;;;;;;;17.92;12.50;;;21.80;72.60;;;;;;5054868;28;20424;-72
2023/09/11 02:00:11;;;;;;;27.02;15.60;;;21.80;73.00;;;;;;5067303;28;20094;-71
2023/09/11 02:02:37;;;;;;;18.23;13.73;;;21.80;73.50;;;;;;5045982;28;20056;-71
2023/09/11 02:05:03;;;;;;;23.67;15.25;;;21.80;73.70;;;;;;5044270;28;20041;-71
2023/09/11 02:07:29;;;;;;;21.30;15.63;;;21.70;74.00;;;;;;5060201;28;20044;-71
2023/09/11 02:09:54;;;;;;;26.40;15.25;;;21.70;74.20;;;;;;5069292;28;20043;-71
2023/09/11 02:12:22;;;;;;;24.20;17.52;;;21.60;74.40;;;;;;5034900;28;20041;-71
2023/09/11 02:14:48;;;;;;;30.23;17.42;;;21.60;74.70;;;;;;5034566;28;20052;-71
2023/09/11 02:17:13;;;;;;;27.63;16.25;;;21.50;75.00;;;;;;5050782;28;20041;-71
2023/09/11 02:19:39;;;;;;;25.67;16.27;;;21.50;75.20;;;;;;5035625;28;20102;-71
2023/09/11 02:22:05;;;;;;;26.75;16.13;;;21.40;75.30;;;;;;5070967;28;20048;-71
2023/09/11 02:24:30;;;;;;;21.85;15.40;;;21.40;75.50;;;;;;5069466;28;20047;-71
2023/09/11 02:26:58;;;;;;;18.73;15.52;;;21.30;75.70;;;;;;5053850;28;20537;-71
2023/09/11 02:29:23;;;;;;;20.80;17.02;;;21.30;75.90;;;;;;5038175;28;20045;-71
2023/09/11 02:31:49;;;;;;;27.27;17.95;;;21.30;76.00;;;;;;5070616;28;20482;-72
2023/09/11 02:34:14;;;;;;;28.70;16.77;;;21.20;76.10;;;;;;5069849;28;20471;-71
2023/09/11 02:36:40;;;;;;;26.80;18.30;;;21.10;76.20;;;;;;5054062;28;20475;-71
2023/09/11 02:39:06;;;;;;;18.70;14.65;;;21.20;76.40;;;;;;5060991;28;20371;-71
2023/09/11 02:41:31;;;;;;;29.15;18.50;;;21.10;76.50;;;;;;5070225;28;20438;-71
2023/09/11 02:43:57;;;;;;;26.10;17.95;;;21.00;76.50;;;;;;5053133;28;20044;-71
2023/09/11 02:46:23;;;;;;;22.80;17.15;;;21.10;76.80;;;;;;5061878;28;20039;-71
2023/09/11 02:48:49;;;;;;;24.67;17.30;;;21.00;76.80;;;;;;5049805;28;20483;-71
2023/09/11 02:51:15;;;;;;;24.25;18.15;;;21.00;77.00;;;;;;5033632;28;20053;-72
2023/09/11 02:53:41;;;;;;;28.63;18.50;;;21.00;77.20;;;;;;5033626;28;20040;-72
2023/09/11 02:56:07;;;;;;;30.80;18.63;;;20.90;77.70;;;;;;5055979;28;20107;-71
2023/09/11 02:58:32;;;;;;;30.63;19.67;;;20.90;77.40;;;;;;5070428;28;20444;-72
2023/09/11 03:01:03;;;;;;;24.30;19.85;;;20.90;77.60;;;;;;5052935;28;20045;-71
2023/09/11 03:03:29;;;;;;;24.35;16.65;;;20.90;77.70;;;;;;5034623;28;20037;-71
2023/09/11 03:05:56;;;;;;;26.20;18.60;;;20.80;77.70;;;;;;5050142;28;20132;-72
2023/09/11 03:08:22;;;;;;;23.00;18.05;;;20.80;77.80;;;;;;5050423;28;20365;-71
2023/09/11 03:10:48;;;;;;;23.52;19.70;;;20.80;77.90;;;;;;5050244;28;20049;-71
2023/09/11 03:13:14;;;;;;;22.73;16.85;;;20.80;77.90;;;;;;5046583;28;20097;-71
2023/09/11 03:15:39;;;;;;;25.73;17.85;;;20.80;78.00;;;;;;5068693;28;20051;-72
2023/09/11 03:18:05;;;;;;;27.13;19.20;;;20.80;78.10;;;;;;5053128;28;20511;-72
2023/09/11 03:20:31;;;;;;;27.08;19.02;;;20.70;78.10;;;;;;5052395;28;20071;-71
2023/09/11 03:22:59;;;;;;;32.40;19.65;;;20.70;78.10;;;;;;5040582;28;20213;-71
2023/09/11 03:25:26;;;;;;;25.80;18.23;;;20.70;78.20;;;;;;5086095;28;20491;-71
2023/09/11 03:27:52;;;;;;;20.75;17.52;;;20.70;78.30;;;;;;5069978;28;20045;-71
2023/09/11 03:30:18;;;;;;;23.08;16.80;;;20.70;78.30;;;;;;5067451;28;20048;-72
2023/09/11 03:32:44;;;;;;;20.38;15.50;;;20.70;78.40;;;;;;5068738;28;20048;-71
2023/09/11 03:35:09;;;;;;;21.50;15.45;;;20.60;78.30;;;;;;5068949;28;20075;-71
2023/09/11 03:37:36;;;;;;;25.48;18.05;;;20.60;78.30;;;;;;5069437;28;20033;-71
2023/09/11 03:40:07;;;;;;;22.23;17.58;;;20.60;78.30;;;;;;5056586;28;20099;-71
2023/09/11 03:42:33;;;;;;;24.15;16.80;;;20.60;78.40;;;;;;5049555;28;20131;-71
2023/09/11 03:45:00;;;;;;;23.50;17.20;;;20.60;78.30;;;;;;5051079;28;20052;-71
2023/09/11 03:47:25;;;;;;;26.20;16.98;;;20.60;78.30;;;;;;5053001;28;20037;-72
2023/09/11 03:49:51;;;;;;;25.77;15.68;;;20.60;78.40;;;;;;5060530;28;20126;-72
2023/09/11 03:52:17;;;;;;;17.30;13.68;;;20.60;78.30;;;;;;5053027;28;20063;-71
2023/09/11 03:54:43;;;;;;;18.67;15.10;;;20.60;78.20;;;;;;5072682;28;20039;-71
2023/09/11 03:57:08;;;;;;;19.15;15.32;;;20.60;78.20;;;;;;5073114;28;20126;-71
2023/09/11 03:59:35;;;;;;;24.13;17.05;;;20.60;78.10;;;;;;5064171;28;20072;-71
2023/09/11 04:02:00;;;;;;;22.17;16.60;;;20.60;78.10;;;;;;5053676;28;20145;-71
2023/09/11 04:04:26;;;;;;;17.17;15.30;;;20.60;78.20;;;;;;5053604;28;20518;-71
2023/09/11 04:06:52;;;;;;;24.85;18.90;;;20.60;78.10;;;;;;5053253;28;20049;-71
2023/09/11 04:09:17;;;;;;;22.50;16.98;;;20.60;78.10;;;;;;5062301;28;20095;-71
2023/09/11 04:11:43;;;;;;;20.48;16.40;;;20.60;78.10;;;;;;5053962;28;20041;-71
2023/09/11 04:14:09;;;;;;;20.83;16.05;;;20.60;78.10;;;;;;5066746;28;20536;-71
2023/09/11 04:16:34;;;;;;;22.77;17.13;;;20.60;78.10;;;;;;5063369;28;20495;-71
2023/09/11 04:19:00;;;;;;;24.35;16.23;;;20.50;78.00;;;;;;5071322;28;20122;-71
2023/09/11 04:21:26;;;;;;;20.05;15.32;;;20.60;78.00;;;;;;5056333;28;20064;-71
2023/09/11 04:23:51;;;;;;;16.52;14.00;;;20.50;77.90;;;;;;5055826;28;20054;-71
2023/09/11 04:26:17;;;;;;;20.80;15.38;;;20.50;77.90;;;;;;5065061;28;20036;-71
2023/09/11 04:28:43;;;;;;;24.60;16.00;;;20.50;77.90;;;;;;5055206;28;20442;-71
2023/09/11 04:31:08;;;;;;;25.45;17.38;;;20.50;78.00;;;;;;5039345;28;20487;-71
2023/09/11 04:33:34;;;;;;;26.30;18.17;;;20.50;78.00;;;;;;5071512;28;20037;-71
2023/09/11 04:36:00;;;;;;;23.70;17.17;;;20.50;78.10;;;;;;5070884;28;20037;-71
2023/09/11 04:38:26;;;;;;;18.58;16.60;;;20.40;78.10;;;;;;5035972;28;20388;-71
2023/09/11 04:40:56;;;;;;;25.98;19.65;;;20.40;78.10;;;;;;5039054;28;20098;-71
2023/09/11 04:43:23;;;;;;;26.50;18.70;;;20.40;78.20;;;;;;5072335;28;20083;-71
2023/09/11 04:45:49;;;;;;;22.20;16.95;;;20.40;78.30;;;;;;5056539;28;20133;-71
2023/09/11 04:48:14;;;;;;;25.85;18.00;;;20.40;78.30;;;;;;5052175;28;20124;-71
2023/09/11 04:50:40;;;;;;;24.30;18.20;;;20.40;78.40;;;;;;5069954;28;20105;-70
2023/09/11 04:53:06;;;;;;;25.98;20.50;;;20.30;78.40;;;;;;5057536;28;20061;-72
2023/09/11 04:55:31;;;;;;;26.35;20.10;;;20.30;78.50;;;;;;5052265;28;20048;-72
2023/09/11 04:57:57;;;;;;;24.40;18.73;;;20.30;78.60;;;;;;5052173;28;20044;-72
2023/09/11 05:00:23;;;;;;;24.48;19.30;;;20.30;78.60;;;;;;5067129;28;20036;-72
2023/09/11 05:02:50;;;;;;;29.15;18.50;;;20.30;78.70;;;;;;5050418;28;20039;-71
2023/09/11 05:05:16;;;;;;;28.02;20.13;;;20.30;78.80;;;;;;5060146;28;20552;-71
2023/09/11 05:07:41;;;;;;;24.50;18.85;;;20.30;78.80;;;;;;5052981;28;20124;-71
2023/09/11 05:10:08;;;;;;;23.00;18.48;;;20.20;78.80;;;;;;5061840;28;20037;-71
2023/09/11 05:12:34;;;;;;;24.73;18.85;;;20.20;78.80;;;;;;5085471;28;20048;-71
2023/09/11 05:15:00;;;;;;;24.60;19.75;;;20.20;78.90;;;;;;5052350;28;20040;-71
2023/09/11 05:17:25;;;;;;;27.75;20.73;;;20.20;79.00;;;;;;5051650;28;20067;-71
2023/09/11 05:19:51;;;;;;;21.67;17.65;;;20.20;79.10;;;;;;5055822;28;20043;-71
2023/09/11 05:22:17;;;;;;;19.75;16.73;;;20.20;79.20;;;;;;5071619;28;20040;-71
2023/09/11 05:24:42;;;;;;;20.73;16.67;;;20.20;79.20;;;;;;5070799;28;20036;-70
2023/09/11 05:27:08;;;;;;;24.17;18.98;;;20.20;79.20;;;;;;5071848;28;20042;-71
2023/09/11 05:29:34;;;;;;;24.45;18.42;;;20.20;79.20;;;;;;5053447;28;20041;-71
2023/09/11 05:31:59;;;;;;;20.73;18.42;;;20.20;79.30;;;;;;5052030;28;20383;-71
2023/09/11 05:34:25;;;;;;;26.38;19.52;;;20.20;79.40;;;;;;5052243;28;20117;-71
2023/09/11 05:36:51;;;;;;;26.10;19.50;;;20.20;79.40;;;;;;5051929;28;20041;-71
2023/09/11 05:39:16;;;;;;;27.90;19.85;;;20.20;79.50;;;;;;5067039;28;20041;-71
2023/09/11 05:41:42;;;;;;;26.92;19.15;;;20.20;79.90;;;;;;5072247;28;20140;-71
2023/09/11 05:44:08;;;;;;;23.05;18.52;;;20.30;79.60;;;;;;5051328;28;20037;-71
2023/09/11 05:46:33;;;;;;;28.45;20.52;;;20.30;80.10;;;;;;5044966;28;20368;-71
2023/09/11 05:48:59;;;;;;;23.55;18.80;;;20.20;79.60;;;;;;5054993;28;20040;-71
2023/09/11 05:51:25;;;;;;;25.13;19.58;;;20.30;79.70;;;;;;5071389;28;20088;-70
2023/09/11 05:53:51;;;;;;;26.17;18.60;;;20.30;79.70;;;;;;5058977;28;20044;-71
2023/09/11 05:56:18;;;;;;;26.85;18.70;;;20.30;79.80;;;;;;5071071;28;20043;-71
2023/09/11 05:58:43;;;;;;;24.58;19.25;;;20.30;80.20;;;;;;5054996;28;20119;-70
2023/09/11 06:01:09;;;;;;;29.30;20.98;;;20.40;79.90;;;;;;5071707;28;20123;-71
2023/09/11 06:03:35;;;;;;;28.13;20.70;;;20.40;80.00;;;;;;5045623;28;20460;-71
2023/09/11 06:06:00;;;;;;;35.42;21.10;;;20.50;80.10;;;;;;5054166;28;20092;-71
2023/09/11 06:08:26;;;;;;;35.03;20.83;;;20.50;80.10;;;;;;5070012;28;20055;-71
2023/09/11 06:10:52;;;;;;;26.80;20.02;;;20.60;80.10;;;;;;5054146;28;20047;-71
2023/09/11 06:13:18;;;;;;;24.90;18.42;;;20.70;80.20;;;;;;5070466;28;20087;-71
2023/09/11 06:15:44;;;;;;;24.80;18.70;;;20.80;80.30;;;;;;5066094;28;20033;-71
2023/09/11 06:18:09;;;;;;;23.90;17.77;;;20.80;80.20;;;;;;5059771;28;20116;-71
2023/09/11 06:20:35;;;;;;;26.35;18.30;;;20.90;80.10;;;;;;5051357;28;20127;-71
2023/09/11 06:23:01;;;;;;;24.38;18.95;;;21.00;79.90;;;;;;5085269;28;20070;-71
2023/09/11 06:25:27;;;;;;;23.40;18.17;;;21.10;79.50;;;;;;5071393;28;20040;-71
2023/09/11 06:27:53;;;;;;;24.23;18.30;;;21.20;79.30;;;;;;5042892;28;20392;-70
2023/09/11 06:30:18;;;;;;;24.58;16.77;;;21.30;79.00;;;;;;5036722;28;20044;-71
2023/09/11 06:32:44;;;;;;;31.40;18.83;;;21.40;78.80;;;;;;5048086;28;20037;-70
2023/09/11 06:35:10;;;;;;;21.35;19.05;;;21.50;78.60;;;;;;5063965;28;20060;-69
2023/09/11 06:37:36;;;;;;;20.48;18.02;;;21.60;78.50;;;;;;5071292;28;20463;-70
2023/09/11 06:40:07;;;;;;;24.23;19.17;;;21.70;78.30;;;;;;5058764;28;20333;-71
2023/09/11 06:42:34;;;;;;;21.15;17.95;;;21.80;78.20;;;;;;5070654;28;20044;-71
2023/09/11 06:44:59;;;;;;;21.30;15.98;;;21.80;78.00;;;;;;5070231;28;20395;-70
2023/09/11 06:47:25;;;;;;;23.35;16.80;;;21.90;78.30;;;;;;5063457;28;20052;-71
2023/09/11 06:49:51;;;;;;;22.63;17.42;;;22.00;77.80;;;;;;5039198;28;20037;-71
2023/09/11 06:52:18;;;;;;;56.15;33.08;;;22.10;77.70;;;;;;5071249;28;20084;-70
2023/09/11 06:54:44;;;;;;;38.17;24.83;;;22.10;77.60;;;;;;5070965;28;20490;-72
2023/09/11 06:57:09;;;;;;;21.55;18.80;;;22.20;77.50;;;;;;5071363;28;20044;-71
2023/09/11 06:59:35;;;;;;;22.13;17.58;;;22.30;77.40;;;;;;5051643;28;20480;-73
2023/09/11 07:02:01;;;;;;;25.42;19.25;;;22.30;77.20;;;;;;5035010;28;20063;-72
2023/09/11 07:04:26;;;;;;;21.98;17.80;;;22.40;77.10;;;;;;5060103;28;20033;-74
2023/09/11 07:06:52;;;;;;;20.45;18.42;;;22.50;76.90;;;;;;5055647;28;20127;-73
2023/09/11 07:09:17;;;;;;;23.13;17.55;;;22.50;76.80;;;;;;5070836;28;20090;-73
2023/09/11 07:11:43;;;;;;;22.45;17.80;;;22.60;76.60;;;;;;5051919;28;20055;-74
2023/09/11 07:14:12;;;;;;;21.33;16.58;;;22.60;76.70;;;;;;5034624;28;20036;-74
2023/09/11 07:16:39;;;;;;;18.77;15.13;;;22.70;76.60;;;;;;5084677;28;20041;-73
2023/09/11 07:19:04;;;;;;;20.23;13.80;;;22.70;76.40;;;;;;5071826;28;20045;-74
2023/09/11 07:21:30;;;;;;;21.00;17.60;;;22.80;76.30;;;;;;5058141;28;20454;-77
2023/09/11 07:23:56;;;;;;;18.98;15.65;;;22.90;76.30;;;;;;5075021;28;20052;-76
2023/09/11 07:26:22;;;;;;;24.08;15.32;;;23.00;76.20;;;;;;5074963;28;20510;-77
2023/09/11 07:28:55;;;;;;;20.35;15.23;;;23.00;76.00;;;;;;5058358;28;20033;-79
2023/09/11 07:31:22;;;;;;;17.33;15.32;;;23.10;75.70;;;;;;5074787;28;20047;-78
2023/09/11 07:33:47;;;;;;;19.25;14.50;;;23.10;75.50;;;;;;5072535;28;20053;-78
2023/09/11 07:36:13;;;;;;;16.40;14.65;;;23.30;75.40;;;;;;5049398;28;20383;-78
2023/09/11 07:38:44;;;;;;;21.98;16.00;;;23.30;75.30;;;;;;5064167;28;20037;-78
2023/09/11 07:41:20;;;;;;;22.40;15.85;;;23.30;75.30;;;;;;5064424;28;20049;-78
2023/09/11 07:43:49;;;;;;;25.52;16.08;;;23.40;75.00;;;;;;5066115;28;20059;-79
2023/09/11 07:46:20;;;;;;;19.40;14.38;;;23.40;74.90;;;;;;5067895;28;20041;-78
2023/09/11 07:48:46;;;;;;;22.88;14.75;;;23.50;74.70;;;;;;5064187;28;20395;-79
2023/09/11 07:51:12;;;;;;;16.77;14.80;;;23.60;74.70;;;;;;5061769;28;20045;-78
2023/09/11 07:53:38;;;;;;;17.02;13.60;;;23.70;74.70;;;;;;5042166;28;20047;-78
2023/09/11 07:56:08;;;;;;;19.73;14.40;;;23.80;74.70;;;;;;5063799;28;20057;-78
2023/09/11 07:58:37;;;;;;;16.65;13.90;;;24.00;74.30;;;;;;5060896;28;20028;-78
2023/09/11 08:01:03;;;;;;;17.83;12.73;;;24.10;74.00;;;;;;5061539;28;20040;-78
2023/09/11 08:03:32;;;;;;;15.88;12.57;;;24.20;73.60;;;;;;5048464;28;20048;-78
2023/09/11 08:05:59;;;;;;;17.45;13.43;;;24.40;73.20;;;;;;5063338;28;20037;-79
2023/09/11 08:08:28;;;;;;;17.60;13.02;;;24.50;72.90;;;;;;5084794;28;20399;-79
2023/09/11 08:10:54;;;;;;;18.38;12.85;;;24.70;72.20;;;;;;5040001;28;20091;-79
2023/09/11 08:13:20;;;;;;;15.25;11.32;;;24.90;71.00;;;;;;5033374;28;20037;-78
2023/09/11 08:15:45;;;;;;;18.20;12.02;;;25.10;70.50;;;;;;5043732;28;20098;-79
2023/09/11 08:18:11;;;;;;;17.98;10.65;;;25.40;69.60;;;;;;5062949;28;20040;-79
2023/09/11 08:20:37;;;;;;;12.23;10.45;;;25.60;68.90;;;;;;5028753;28;20049;-79
2023/09/11 08:23:03;;;;;;;13.00;10.80;;;25.80;67.90;;;;;;5061007;28;20028;-79
2023/09/11 08:25:29;;;;;;;16.42;12.00;;;26.10;67.00;;;;;;5063182;28;20475;-79
2023/09/11 08:27:55;;;;;;;22.05;12.95;;;26.30;65.60;;;;;;5059889;28;20037;-79
2023/09/11 08:30:21;;;;;;;15.88;11.38;;;26.60;64.60;;;;;;5061112;28;20051;-79
2023/09/11 08:32:47;;;;;;;20.23;12.15;;;26.70;63.90;;;;;;5043998;28;20041;-78
2023/09/11 08:35:12;;;;;;;16.60;12.18;;;27.00;63.10;;;;;;5060381;28;20467;-79
2023/09/11 08:37:38;;;;;;;17.65;12.23;;;27.10;62.40;;;;;;5063590;28;20041;-79
2023/09/11 08:40:04;;;;;;;14.02;11.07;;;27.30;62.20;;;;;;5062050;28;20344;-80
2023/09/11 08:42:30;;;;;;;14.77;11.57;;;27.50;62.50;;;;;;5067085;28;20052;-79
2023/09/11 08:44:56;;;;;;;19.90;11.82;;;27.70;61.80;;;;;;5034553;28;20041;-80
2023/09/11 08:47:28;;;;;;;13.07;11.50;;;28.00;60.90;;;;;;5059829;28;20443;-80
2023/09/11 08:49:58;;;;;;;14.68;11.43;;;28.20;60.10;;;;;;5061638;28;20557;-81
2023/09/11 08:52:26;;;;;;;12.40;10.73;;;28.30;60.40;;;;;;5061377;28;20037;-81
2023/09/11 08:54:55;;;;;;;13.60;10.48;;;28.60;60.00;;;;;;5064212;28;20039;-80
2023/09/11 08:57:26;;;;;;;16.52;11.55;;;28.70;59.50;;;;;;5061689;28;20511;-75
2023/09/11 08:59:56;;;;;;;14.52;11.20;;;28.90;58.80;;;;;;5065244;28;20049;-74
2023/09/11 09:02:24;;;;;;;13.15;10.27;;;29.00;58.20;;;;;;5061745;28;20032;-74
2023/09/11 09:04:51;;;;;;;16.20;11.48;;;29.20;57.90;;;;;;5043493;28;20037;-75
2023/09/11 09:07:17;;;;;;;12.55;9.82;;;29.30;57.60;;;;;;5064249;28;20063;-74
2023/09/11 09:09:43;;;;;;;14.65;11.85;;;29.50;57.10;;;;;;5063344;28;20032;-74
2023/09/11 09:12:10;;;;;;;10.88;9.20;;;29.70;56.50;;;;;;5060540;28;20041;-75
2023/09/11 09:14:39;;;;;;;12.35;9.88;;;29.80;56.10;;;;;;5060995;28;20145;-74
2023/09/11 09:17:05;;;;;;;13.93;10.10;;;29.90;55.60;;;;;;5082698;28;20045;-74
2023/09/11 09:19:31;;;;;;;13.93;10.98;;;30.00;55.60;;;;;;5065957;28;20048;-74
2023/09/11 09:22:06;;;;;;;16.33;11.18;;;30.10;55.20;;;;;;5042393;28;20044;-75
2023/09/11 09:24:33;;;;;;;17.02;10.90;;;30.10;55.00;;;;;;5061164;28;20044;-75
2023/09/11 09:27:00;;;;;;;14.30;9.48;;;30.20;54.70;;;;;;5062415;28;20048;-74
2023/09/11 09:29:25;;;;;;;15.13;9.73;;;30.30;54.80;;;;;;5046392;28;20532;-74
2023/09/11 09:31:51;;;;;;;10.65;8.45;;;30.40;54.70;;;;;;5059478;28;20127;-74
2023/09/11 09:34:17;;;;;;;14.35;10.80;;;30.40;54.70;;;;;;5058007;28;20379;-74
2023/09/11 09:36:53;;;;;;;16.38;9.80;;;30.50;54.40;;;;;;5058521;28;20125;-73
2023/09/11 09:39:20;;;;;;;10.65;8.93;;;30.60;54.30;;;;;;5058169;28;20079;-74
2023/09/11 09:41:56;;;;;;;12.15;10.02;;;30.60;54.20;;;;;;5046063;28;20098;-73
2023/09/11 09:44:31;;;;;;;16.30;10.93;;;30.70;53.90;;;;;;5060056;28;20040;-74
2023/09/11 09:47:21;;;;;;;11.70;9.95;;;30.60;53.20;;;;;;5061153;28;20062;-74
2023/09/11 09:49:51;;;;;;;12.82;9.57;;;30.70;53.30;;;;;;5038477;28;20037;-74
2023/09/11 09:52:19;;;;;;;13.48;11.23;;;30.60;53.80;;;;;;5067469;28;20087;-74
2023/09/11 09:54:54;;;;;;;14.43;10.32;;;30.60;53.60;;;;;;5060877;28;20520;-73
2023/09/11 09:57:22;;;;;;;11.48;9.73;;;30.60;54.10;;;;;;5070979;28;20098;-73
2023/09/11 09:59:52;;;;;;;12.85;11.55;;;30.70;53.90;;;;;;5059286;28;20125;-73
2023/09/11 10:02:29;;;;;;;13.05;11.32;;;30.70;53.50;;;;;;5058811;28;20049;-73
2023/09/11 10:05:01;;;;;;;12.98;10.05;;;30.70;53.10;;;;;;5052803;28;20037;-73
2023/09/11 10:07:44;;;;;;;11.30;10.17;;;30.70;52.90;;;;;;5050375;28;20040;-73
2023/09/11 10:10:27;;;;;;;11.70;10.50;;;30.80;53.70;;;;;;5063544;28;20876;-73
2023/09/11 10:13:00;;;;;;;16.13;12.30;;;30.90;53.90;;;;;;5070893;28;20059;-73
2023/09/11 10:15:26;;;;;;;;;;;30.90;53.40;;;;;;5070827;28;20063;-73
2023/09/11 10:17:57;;;;;;;19.75;12.98;;;30.90;53.80;;;;;;5053097;28;19916;-73
2023/09/11 10:20:23;;;;;;;17.40;11.55;;;30.90;52.90;;;;;;5060979;28;20407;-73
2023/09/11 10:22:54;;;;;;;13.25;11.55;;;30.90;52.50;;;;;;5037778;28;20045;-73
2023/09/11 10:25:21;;;;;;;12.32;10.52;;;30.90;52.20;;;;;;5062194;28;20178;-73
2023/09/11 10:27:50;;;;;;;13.20;10.32;;;30.90;51.90;;;;;;5043217;28;20041;-74
2023/09/11 10:37:16;;;;;;;13.98;9.70;;;30.90;52.20;;;;;;5546408;22;20101;-73
2023/09/11 10:39:41;;;;;;;15.15;11.10;;;30.90;52.10;;;;;;5082441;23;20059;-72
2023/09/11 10:42:07;;;;;;;11.35;8.88;;;30.90;51.40;;;;;;5083263;28;20100;-80
2023/09/11 10:44:37;;;;;;;10.40;9.10;;;30.90;51.70;;;;;;5097556;28;20070;-74
2023/09/11 10:47:04;;;;;;;11.45;8.50;;;30.90;51.90;;;;;;5056548;28;20126;-75
2023/09/11 10:49:36;;;;;;;13.10;8.52;;;31.00;51.90;;;;;;5053248;28;20131;-74
2023/09/11 10:52:05;;;;;;;11.00;7.55;;;30.90;51.70;;;;;;5088223;28;20047;-74
2023/09/11 10:54:31;;;;;;;11.30;9.10;;;31.00;51.90;;;;;;5093303;28;20032;-73
2023/09/11 10:56:58;;;;;;;11.32;9.82;;;31.00;51.70;;;;;;5096876;28;20059;-73
2023/09/11 10:59:24;;;;;;;14.60;9.35;;;31.00;51.30;;;;;;5091057;28;20036;-73
2023/09/11 11:01:51;;;;;;;13.90;10.15;;;31.10;51.70;;;;;;5090559;28;20054;-74
2023/09/11 11:04:17;;;;;;;10.25;8.48;;;31.10;51.30;;;;;;5087735;28;20036;-74
2023/09/11 11:06:45;;;;;;;11.27;8.18;;;31.20;51.60;;;;;;5085063;28;20114;-74
2023/09/11 11:09:32;;;;;;;11.48;8.50;;;31.20;51.50;;;;;;5085713;28;20105;-73
2023/09/11 11:12:10;;;;;;;10.55;7.78;;;31.40;51.90;;;;;;5085267;28;20039;-73
2023/09/11 11:14:36;;;;;;;9.15;7.57;;;31.40;51.50;;;;;;5067538;28;20101;-73
2023/09/11 11:17:06;;;;;;;12.15;8.45;;;31.40;51.10;;;;;;5085827;28;20065;-74
2023/09/11 11:19:34;;;;;;;8.80;6.32;;;31.50;50.90;;;;;;5085470;28;20044;-74
2023/09/11 11:22:01;;;;;;;10.60;6.40;;;31.50;50.90;;;;;;5084728;28;20071;-74
2023/09/11 11:24:30;;;;;;;8.50;7.03;;;31.60;50.40;;;;;;5068995;28;20409;-74
2023/09/11 11:26:57;;;;;;;7.65;5.90;;;31.60;50.30;;;;;;5085775;28;20362;-74
2023/09/11 11:29:24;;;;;;;8.15;5.88;;;31.70;49.70;;;;;;5085513;28;20047;-74
2023/09/11 11:31:55;;;;;;;9.27;6.43;;;31.70;49.70;;;;;;5085461;28;20051;-74
2023/09/11 11:34:28;;;;;;;9.88;7.00;;;31.70;49.70;;;;;;5086039;28;20028;-74
2023/09/11 11:36:57;;;;;;;12.60;7.97;;;31.80;50.00;;;;;;5085335;28;20115;-74
2023/09/11 11:39:24;;;;;;;7.80;6.13;;;31.80;49.50;;;;;;5086214;28;20048;-74
2023/09/11 11:41:52;;;;;;;8.20;7.40;;;31.80;49.70;;;;;;5086118;28;20051;-74
2023/09/11 11:44:18;;;;;;;8.77;6.70;;;31.90;49.80;;;;;;5086045;28;20044;-74
2023/09/11 11:46:45;;;;;;;9.30;7.20;;;31.90;49.60;;;;;;5085658;28;20043;-74
2023/09/11 11:49:11;;;;;;;9.88;7.60;;;31.90;49.30;;;;;;5068599;28;20458;-74
2023/09/11 11:51:36;;;;;;;7.95;6.35;;;31.90;48.60;;;;;;5086134;28;20204;-74
2023/09/11 11:54:04;;;;;;;9.43;5.70;;;31.90;48.90;;;;;;5086643;28;20111;-74
2023/09/11 11:56:30;;;;;;;7.68;6.75;;;31.90;49.10;;;;;;5087039;28;20056;-74
2023/09/11 11:58:57;;;;;;;11.52;7.35;;;31.90;48.90;;;;;;5086793;28;20036;-74
2023/09/11 12:01:23;;;;;;;7.25;5.93;;;32.00;49.00;;;;;;5085941;28;20048;-74
2023/09/11 12:03:50;;;;;;;8.00;7.13;;;32.00;49.10;;;;;;5086330;28;20048;-74
2023/09/11 12:06:16;;;;;;;9.10;6.95;;;32.00;49.10;;;;;;5082624;28;20047;-74
2023/09/11 12:08:44;;;;;;;10.15;7.30;;;32.00;49.00;;;;;;5081718;28;20052;-75
2023/09/11 12:11:10;;;;;;;8.30;6.55;;;32.00;48.70;;;;;;5083172;28;20052;-75
2023/09/11 12:13:37;;;;;;;8.80;6.63;;;32.00;49.10;;;;;;5082513;28;20406;-74
2023/09/11 12:16:03;;;;;;;11.25;6.40;;;32.00;48.60;;;;;;5066078;28;20050;-74
2023/09/11 12:18:30;;;;;;;11.13;5.82;;;32.00;48.40;;;;;;5082331;28;20099;-74
2023/09/11 12:21:02;;;;;;;9.30;5.55;;;32.00;48.60;;;;;;5082349;28;20032;-75
2023/09/11 12:23:29;;;;;;;7.30;6.43;;;32.10;48.50;;;;;;5082680;28;20405;-75
2023/09/11 12:25:55;;;;;;;9.07;6.20;;;32.00;48.10;;;;;;5083575;28;20071;-74
2023/09/11 12:28:22;;;;;;;6.35;5.03;;;32.10;48.10;;;;;;5081970;28;20433;-74
2023/09/11 12:30:48;;;;;;;8.27;5.40;;;32.00;48.00;;;;;;5083234;28;20443;-74
2023/09/11 12:33:16;;;;;;;8.75;5.93;;;32.10;47.90;;;;;;5088025;28;20078;-73
2023/09/11 12:35:45;;;;;;;7.07;4.85;;;32.00;47.80;;;;;;5089641;28;20036;-73
2023/09/11 12:38:11;;;;;;;6.20;5.10;;;32.00;48.10;;;;;;5089527;28;20050;-73